• Join FlightAware (Why Join?)
  • Login
  • US Flag 
09:29AM EST


 

Airport Tracker/Info


-or-


 

Live Flight TrackerFlight Track Log ✈ FSR411 ✈ 05-Sep-2013 ✈ KCMI - KDET

Flight Track Log - Related Links

Times and Time Zones

All times are in EDT time to prevent confusion due to time zone crossing. See the FSR411 flight status page for this flight to view local times or setup timezone preferences in your user account.

Time Position Orientation Groundspeed Altitude Reporting Facility
EDT Latitude Longitude Course Direction KTS MPH feet Rate Location/Type
07:45AM 40.0797 -88.2464 65° Northeast 155 178 4,400  Level Chicago Center
07:46AM 40.1022 -88.1694 69° East 216 249 7,600 3,000 Climbing Chicago Center
07:47AM 40.1297 -88.0742 69° East 265 305 10,600 2,940 Climbing Chicago Center
07:48AM 40.1661 -87.9603 67° East 314 361 13,700 3,240 Climbing Chicago Center
07:50AM 40.2147 -87.8053 68° East 370 426 17,300 3,120 Climbing Chicago Center
07:51AM 40.2875 -87.4574 65° Northeast  Level FlightAware Approximate
07:51AM 40.2572 -87.6650 68° East 407 468 20,100  Level Chicago Center
07:52AM 40.3017 -87.5225 68° East 422 486 23,200 2,820 Climbing Chicago Center
07:53AM 40.3464 -87.3750 68° East 425 489 25,900 1,800 Climbing Chicago Center
07:54AM 40.3925 -87.2228 68° East 444 511 27,000 480 Climbing Chicago Center
07:55AM 40.4417 -87.0581 69° East 478 550 27,000  Level Chicago Center
07:56AM 40.4900 -86.8939 69° East 482 555 27,000  Level Chicago Center
07:57AM 40.5392 -86.7319 68° East 479 551 27,000  Level Chicago Center
07:58AM 40.5858 -86.5703 69° East 476 548 27,000  Level Chicago Center
07:59AM 40.6342 -86.4075 69° East 477 549 27,000  Level Chicago Center
08:00AM 40.6894 -86.2128 69° East 475 547 27,000 -120 Level Chicago Center
08:01AM 40.7364 -86.0511 69° East 473 544 26,800 -660 Descending Chicago Center
08:02AM 40.7828 -85.8883 69° East 475 547 25,700 -1,080 Descending Chicago Center
08:03AM 40.8275 -85.7283 70° East 471 542 24,700 -1,200 Descending Chicago Center
08:04AM 40.8744 -85.5678 69° East 472 543 23,300 -1,440 Descending Chicago Center
08:05AM 40.9167 -85.4142 70° East 455 524 21,800 -1,680 Descending Chicago Center
08:06AM 40.9661 -85.2289 70° East 451 519 19,900 -1,680 Descending Chicago Center
08:07AM 41.0100 -85.0828 68° East 439 505 18,400 -1,320 Descending Chicago Center
08:08AM 41.0558 -84.9400 67° East 429 494 17,200 -720 Descending Chicago Center
08:09AM 41.1003 -84.8003 67° East 419 482 17,000 -120 Descending Chicago Center
08:10AM 41.1431 -84.6603 68° East 415 478 17,000  Level Chicago Center
08:11AM 41.1864 -84.5175 68° East 419 482 17,000 -780 Level Chicago Center
08:12AM 41.2386 -84.3489 68° East 414 476 15,400 -1,500 Descending Chicago Center
08:13AM 41.2794 -84.2147 68° East 399 459 14,000 -1,380 Descending Chicago Center
08:14AM 41.3194 -84.0842 68° East 387 445 12,600 -1,380 Descending Chicago Center
08:15AM 41.3575 -83.9550 69° East 380 437 11,200 -1,140 Descending Chicago Center
08:16AM 41.3972 -83.8136 69° East 377 434 10,400 -720 Descending Cleveland Center
08:17AM 41.4364 -83.6881 67° East 382 440 9,900 -300 Descending Cleveland Center
08:18AM 41.4814 -83.5600 65° Northeast 382 440 9,900  Level Cleveland Center
08:19AM 41.5303 -83.4403 61° Northeast 372 428 9,900  Level Cleveland Center
08:20AM 41.5792 -83.3203 61° Northeast 375 432 10,000 -120 Climbing Cleveland Center
08:21AM 41.6192 -83.2164 63° Northeast 309 356 9,700 -840 Descending Cleveland Center
08:22AM 41.6567 -83.1233 62° Northeast 308 354 8,500 -900 Descending Cleveland Center
08:23AM 41.6942 -83.0247 63° Northeast 305 351 8,000 -240 Descending Cleveland Center
08:24AM 41.7383 -82.9122 62° Northeast 305 351 8,000 -300 Level Cleveland Center
08:25AM 41.7858 -82.8194 56° Northeast 287 330 7,400 -900 Descending Cleveland Center
08:26AM 41.8547 -82.8217 359° North 256 295 6,200 -1,320 Descending Cleveland Center
08:27AM 41.9272 -82.8494 344° North 250 288 4,800 -1,020 Descending Cleveland Center
08:28AM 42.0039 -82.8744 346° North 254 292 4,100 -420 Descending Cleveland Center
08:29AM 42.0700 -82.8964 346° North 251 289 4,000 -60 Descending Cleveland Center
08:30AM 42.1444 -82.9244 344° North 250 288 4,000 -360 Level Cleveland Center
08:31AM 42.2150 -82.9494 345° North 249 287 3,300 -540 Descending Cleveland Center
08:32AM 42.2731 -82.9600 352° North 210 242 3,000 -240 Descending Cleveland Center
08:33AM 42.3208 -82.9675 353° North 150 173 2,900 -540 Descending Cleveland Center
08:34AM 42.3603 -82.9717 356° North 128 147 2,000 -900 Descending Cleveland Center
08:35AM 42.3850 -82.9839 340° North 113 130 1,300 -900 Descending Cleveland Center